RYR7828 EGGW-LEMI
Flight info
| Callsign | RYR7828 |
|---|---|
| Flight time | N/A |
| Altitude | 39000 |
| Route | RODNI N27 ICTAM Q63 CPT N859 VAPID UN859 SOPIL DCT BALAN DCT LMG DCT PIMQO DCT AGN DCT ANETO DCT POSSY DCT XIMPE DCT RIMES N860 VLC L34 ALT |
| Aircraft | B738/M-SDE3FGILRWY/SB1 |
Departure
| Time | N/A |
|---|---|
| Airport | London Luton Airport (EGGW) |
Arrival
| Time | 2026-04-14 10:48 |
|---|---|
| Airport | Region of Murcia International Airport (LEMI) |
| Time | Latitude | Longitude | Altitude | Speed | Heading |
|---|---|---|---|---|---|
| 2026-04-14 10:20 | 40.03206 | -0.27136 | 32204 ft | 485 kts | 200° |
| 2026-04-14 10:20 | 39.99987 | -0.28402 | 31862 ft | 481 kts | 199° |
| 2026-04-14 10:20 | 39.96795 | -0.29643 | 31586 ft | 477 kts | 199° |
| 2026-04-14 10:21 | 39.93623 | -0.30861 | 31271 ft | 473 kts | 199° |
| 2026-04-14 10:21 | 39.90479 | -0.32068 | 30950 ft | 470 kts | 199° |
| 2026-04-14 10:21 | 39.87358 | -0.33271 | 30660 ft | 466 kts | 199° |
| 2026-04-14 10:21 | 39.84264 | -0.34471 | 30363 ft | 462 kts | 199° |
| 2026-04-14 10:22 | 39.81191 | -0.35668 | 30044 ft | 459 kts | 199° |
| 2026-04-14 10:22 | 39.78155 | -0.36851 | 29608 ft | 453 kts | 199° |
| 2026-04-14 10:22 | 39.75151 | -0.38021 | 29018 ft | 450 kts | 199° |
| 2026-04-14 10:22 | 39.72164 | -0.39182 | 28444 ft | 447 kts | 199° |
| 2026-04-14 10:23 | 39.69203 | -0.40332 | 27974 ft | 442 kts | 199° |
| 2026-04-14 10:23 | 39.66274 | -0.41467 | 27541 ft | 436 kts | 199° |
| 2026-04-14 10:23 | 39.63381 | -0.42587 | 27047 ft | 432 kts | 199° |
| 2026-04-14 10:23 | 39.60521 | -0.43694 | 26635 ft | 426 kts | 199° |
| 2026-04-14 10:24 | 39.57706 | -0.44783 | 26259 ft | 419 kts | 199° |
| 2026-04-14 10:24 | 39.54929 | -0.45856 | 25894 ft | 413 kts | 199° |
| 2026-04-14 10:24 | 39.52202 | -0.46908 | 25540 ft | 406 kts | 199° |
| 2026-04-14 10:24 | 39.49506 | -0.47931 | 25186 ft | 401 kts | 196° |
| 2026-04-14 10:25 | 39.46778 | -0.48546 | 24891 ft | 396 kts | 184° |
| 2026-04-14 10:25 | 39.44038 | -0.48757 | 24684 ft | 398 kts | 182° |
| 2026-04-14 10:25 | 39.41232 | -0.48932 | 24482 ft | 409 kts | 182° |
| 2026-04-14 10:25 | 39.38372 | -0.49104 | 24225 ft | 410 kts | 182° |
| 2026-04-14 10:26 | 39.35540 | -0.49281 | 23879 ft | 404 kts | 182° |
| 2026-04-14 10:26 | 39.32756 | -0.49464 | 23515 ft | 398 kts | 183° |
| 2026-04-14 10:26 | 39.30010 | -0.49653 | 23122 ft | 392 kts | 183° |
| 2026-04-14 10:26 | 39.27312 | -0.49843 | 22753 ft | 385 kts | 183° |
| 2026-04-14 10:27 | 39.24660 | -0.50032 | 22391 ft | 378 kts | 183° |
| 2026-04-14 10:27 | 39.22052 | -0.50220 | 22069 ft | 372 kts | 183° |
| 2026-04-14 10:27 | 39.19492 | -0.50404 | 21741 ft | 366 kts | 183° |
| 2026-04-14 10:27 | 39.16971 | -0.50586 | 21420 ft | 361 kts | 183° |
| 2026-04-14 10:28 | 39.14474 | -0.50766 | 21106 ft | 358 kts | 183° |
| 2026-04-14 10:28 | 39.11991 | -0.50945 | 20806 ft | 359 kts | 184° |
| 2026-04-14 10:28 | 39.09466 | -0.51127 | 20521 ft | 367 kts | 184° |
| 2026-04-14 10:28 | 39.06943 | -0.51308 | 20206 ft | 368 kts | 184° |
| 2026-04-14 10:29 | 39.04383 | -0.51492 | 19883 ft | 367 kts | 184° |
| 2026-04-14 10:29 | 39.01838 | -0.51674 | 19557 ft | 366 kts | 184° |
| 2026-04-14 10:29 | 38.99303 | -0.51856 | 19243 ft | 364 kts | 184° |
| 2026-04-14 10:29 | 38.96778 | -0.52037 | 18925 ft | 363 kts | 184° |
| 2026-04-14 10:30 | 38.94261 | -0.52217 | 18598 ft | 361 kts | 184° |
| 2026-04-14 10:30 | 38.91756 | -0.52396 | 18257 ft | 360 kts | 184° |
| 2026-04-14 10:30 | 38.89259 | -0.52575 | 17893 ft | 358 kts | 184° |
| 2026-04-14 10:30 | 38.86783 | -0.52751 | 17559 ft | 355 kts | 184° |
| 2026-04-14 10:31 | 38.84325 | -0.52927 | 17228 ft | 353 kts | 184° |
| 2026-04-14 10:31 | 38.81883 | -0.53101 | 16914 ft | 350 kts | 184° |
| 2026-04-14 10:31 | 38.79452 | -0.53274 | 16583 ft | 349 kts | 184° |
| 2026-04-14 10:31 | 38.77039 | -0.53446 | 16271 ft | 347 kts | 184° |
| 2026-04-14 10:32 | 38.74637 | -0.53617 | 15944 ft | 345 kts | 184° |
| 2026-04-14 10:32 | 38.72249 | -0.53787 | 15617 ft | 343 kts | 184° |
| 2026-04-14 10:32 | 38.69873 | -0.53956 | 15290 ft | 341 kts | 184° |
| 2026-04-14 10:32 | 38.67504 | -0.54125 | 14973 ft | 340 kts | 184° |
| 2026-04-14 10:33 | 38.65148 | -0.54293 | 14564 ft | 339 kts | 183° |
| 2026-04-14 10:33 | 38.62798 | -0.54460 | 14239 ft | 337 kts | 183° |
| 2026-04-14 10:33 | 38.60458 | -0.54625 | 13943 ft | 336 kts | 183° |
| 2026-04-14 10:33 | 38.58129 | -0.54789 | 13592 ft | 335 kts | 183° |
| 2026-04-14 10:34 | 38.53498 | -0.55117 | 12926 ft | 331 kts | 184° |
| 2026-04-14 10:34 | 38.51207 | -0.55279 | 12643 ft | 328 kts | 184° |
| 2026-04-14 10:34 | 38.48938 | -0.55439 | 12324 ft | 326 kts | 184° |
| 2026-04-14 10:35 | 38.46682 | -0.55599 | 12013 ft | 324 kts | 184° |
| 2026-04-14 10:35 | 38.44467 | -0.55755 | 11720 ft | 322 kts | 184° |
| 2026-04-14 10:35 | 38.42237 | -0.55912 | 11420 ft | 320 kts | 184° |
| 2026-04-14 10:35 | 38.40015 | -0.56069 | 11121 ft | 319 kts | 184° |
| 2026-04-14 10:36 | 38.37807 | -0.56225 | 10827 ft | 317 kts | 184° |
| 2026-04-14 10:36 | 38.35606 | -0.56380 | 10534 ft | 316 kts | 184° |
| 2026-04-14 10:36 | 38.33418 | -0.56534 | 10250 ft | 314 kts | 184° |
| 2026-04-14 10:36 | 38.31260 | -0.56685 | 10119 ft | 307 kts | 185° |
| 2026-04-14 10:37 | 38.29136 | -0.56838 | 9823 ft | 306 kts | 186° |
| 2026-04-14 10:37 | 38.27126 | -0.57543 | 9522 ft | 297 kts | 214° |
| 2026-04-14 10:37 | 38.25526 | -0.59111 | 9365 ft | 286 kts | 224° |
| 2026-04-14 10:37 | 38.23987 | -0.60703 | 9149 ft | 282 kts | 223° |
| 2026-04-14 10:38 | 38.22489 | -0.62206 | 9080 ft | 267 kts | 223° |
| 2026-04-14 10:38 | 38.21071 | -0.63631 | 8963 ft | 254 kts | 223° |
| 2026-04-14 10:38 | 38.19659 | -0.65065 | 8420 ft | 265 kts | 223° |
| 2026-04-14 10:38 | 38.18221 | -0.66528 | 8073 ft | 264 kts | 223° |
| 2026-04-14 10:39 | 38.16802 | -0.67972 | 7785 ft | 259 kts | 223° |
| 2026-04-14 10:39 | 38.15408 | -0.69392 | 7523 ft | 255 kts | 223° |
| 2026-04-14 10:39 | 38.14022 | -0.70806 | 7261 ft | 256 kts | 223° |
| 2026-04-14 10:39 | 38.12640 | -0.72215 | 7001 ft | 253 kts | 223° |
| 2026-04-14 10:40 | 38.11284 | -0.73604 | 6700 ft | 250 kts | 224° |
| 2026-04-14 10:40 | 38.09936 | -0.75006 | 6265 ft | 252 kts | 222° |
| 2026-04-14 10:40 | 38.08571 | -0.76384 | 5990 ft | 246 kts | 223° |
| 2026-04-14 10:40 | 38.07343 | -0.77837 | 5748 ft | 238 kts | 229° |
| 2026-04-14 10:41 | 38.06194 | -0.79308 | 5570 ft | 231 kts | 230° |
| 2026-04-14 10:41 | 38.05074 | -0.80712 | 5403 ft | 221 kts | 228° |
| 2026-04-14 10:41 | 38.03992 | -0.82018 | 5201 ft | 214 kts | 230° |
| 2026-04-14 10:41 | 38.02960 | -0.83351 | 4932 ft | 210 kts | 231° |
| 2026-04-14 10:42 | 38.01954 | -0.84674 | 4733 ft | 204 kts | 231° |
| 2026-04-14 10:42 | 38.00981 | -0.85915 | 4642 ft | 196 kts | 230° |
| 2026-04-14 10:42 | 37.99963 | -0.87128 | 4299 ft | 206 kts | 228° |
| 2026-04-14 10:42 | 37.98970 | -0.88408 | 4262 ft | 195 kts | 233° |
| 2026-04-14 10:43 | 37.98385 | -0.89256 | 4253 ft | 191 kts | 234° |
| 2026-04-14 10:43 | 37.97312 | -0.90660 | 4186 ft | 191 kts | 231° |
| 2026-04-14 10:43 | 37.96371 | -0.91822 | 4107 ft | 192 kts | 230° |
| 2026-04-14 10:43 | 37.95432 | -0.93023 | 4048 ft | 190 kts | 232° |
| 2026-04-14 10:44 | 37.94512 | -0.94230 | 3993 ft | 191 kts | 232° |
| 2026-04-14 10:44 | 37.93575 | -0.95431 | 3852 ft | 193 kts | 232° |
| 2026-04-14 10:44 | 37.92623 | -0.96661 | 3603 ft | 198 kts | 231° |
| 2026-04-14 10:44 | 37.91630 | -0.97884 | 3455 ft | 199 kts | 231° |
| 2026-04-14 10:45 | 37.90648 | -0.99120 | 3288 ft | 198 kts | 233° |
| 2026-04-14 10:45 | 37.89687 | -1.00360 | 3069 ft | 197 kts | 232° |
| 2026-04-14 10:45 | 37.88745 | -1.01606 | 2804 ft | 195 kts | 231° |
| 2026-04-14 10:45 | 37.87809 | -1.02819 | 2453 ft | 191 kts | 230° |
| 2026-04-14 10:46 | 37.86896 | -1.03993 | 2171 ft | 182 kts | 233° |
| 2026-04-14 10:46 | 37.86042 | -1.05082 | 2066 ft | 163 kts | 233° |
| 2026-04-14 10:46 | 37.85301 | -1.06018 | 1964 ft | 141 kts | 230° |
| 2026-04-14 10:46 | 37.84620 | -1.06890 | 1710 ft | 140 kts | 234° |
| 2026-04-14 10:47 | 37.83969 | -1.07763 | 1476 ft | 133 kts | 233° |
| 2026-04-14 10:47 | 37.83309 | -1.08589 | 1265 ft | 133 kts | 234° |
| 2026-04-14 10:47 | 37.82672 | -1.09432 | 1066 ft | 132 kts | 234° |
| 2026-04-14 10:47 | 37.82030 | -1.10253 | 894 ft | 129 kts | 236° |
| 2026-04-14 10:48 | 37.81400 | -1.11066 | 717 ft | 130 kts | 235° |
| 2026-04-14 10:48 | 37.80792 | -1.11849 | 644 ft | 114 kts | 234° |
| 2026-04-14 10:48 | 37.80314 | -1.12472 | 646 ft | 75 kts | 226° |
| 2026-04-14 10:48 | 37.80015 | -1.12858 | 643 ft | 46 kts | 226° |
| 2026-04-14 10:49 | 37.79908 | -1.13103 | 647 ft | 30 kts | 255° |
| 2026-04-14 10:49 | 37.79914 | -1.13242 | 652 ft | 13 kts | 329° |
| 2026-04-14 10:49 | 37.79993 | -1.13193 | 647 ft | 14 kts | 44° |
| 2026-04-14 10:49 | 37.80059 | -1.13110 | 647 ft | 13 kts | 45° |
| 2026-04-14 10:50 | 37.80129 | -1.13089 | 647 ft | 9 kts | 325° |
| 2026-04-14 10:50 | 37.80171 | -1.13147 | 646 ft | 9 kts | 323° |
| 2026-04-14 10:50 | 37.80217 | -1.13153 | 646 ft | 6 kts | 24° |
| 2026-04-14 10:50 | 37.80249 | -1.13118 | 646 ft | 6 kts | 43° |
| 2026-04-14 10:51 | 37.80286 | -1.13109 | 646 ft | 6 kts | 327° |
| 2026-04-14 10:51 | 37.80315 | -1.13145 | 646 ft | 3 kts | 315° |
| 2026-04-14 10:51 | 37.80322 | -1.13154 | 646 ft | 0 kts | 315° |